sensor_id;sensor_type;location;lat;lon;timestamp;pressure;altitude;pressure_sealevel;temperature;humidity
43281;BME280;62175;49.416;8.690;2023-04-15T00:01:08;99596.09;;;12.36;46.81
43281;BME280;62175;49.416;8.690;2023-04-15T00:03:36;99596.61;;;12.21;46.59
43281;BME280;62175;49.416;8.690;2023-04-15T00:06:03;99593.46;;;12.08;46.61
43281;BME280;62175;49.416;8.690;2023-04-15T00:08:30;99590.94;;;12.27;46.84
43281;BME280;62175;49.416;8.690;2023-04-15T00:10:57;99589.13;;;12.25;46.91
43281;BME280;62175;49.416;8.690;2023-04-15T00:13:24;99589.98;;;12.08;47.44
43281;BME280;62175;49.416;8.690;2023-04-15T00:15:51;99587.75;;;12.07;47.41
43281;BME280;62175;49.416;8.690;2023-04-15T00:18:19;99587.38;;;12.47;47.31
43281;BME280;62175;49.416;8.690;2023-04-15T00:20:46;99584.36;;;11.86;47.31
43281;BME280;62175;49.416;8.690;2023-04-15T00:23:13;99584.29;;;12.15;47.88
43281;BME280;62175;49.416;8.690;2023-04-15T00:25:40;99580.06;;;11.89;47.28
43281;BME280;62175;49.416;8.690;2023-04-15T00:28:07;99578.08;;;12.18;47.80
43281;BME280;62175;49.416;8.690;2023-04-15T00:30:35;99574.93;;;12.20;48.14
43281;BME280;62175;49.416;8.690;2023-04-15T00:33:02;99573.11;;;12.15;47.30
43281;BME280;62175;49.416;8.690;2023-04-15T00:35:29;99574.02;;;12.16;47.34
43281;BME280;62175;49.416;8.690;2023-04-15T00:37:57;99571.72;;;12.24;46.83
43281;BME280;62175;49.416;8.690;2023-04-15T00:40:24;99571.31;;;12.15;46.63
43281;BME280;62175;49.416;8.690;2023-04-15T00:42:52;99570.72;;;12.25;47.38
43281;BME280;62175;49.416;8.690;2023-04-15T00:45:19;99571.57;;;11.82;46.40
43281;BME280;62175;49.416;8.690;2023-04-15T00:47:46;99570.27;;;12.07;46.66
43281;BME280;62175;49.416;8.690;2023-04-15T00:50:14;99572.02;;;11.76;47.08
43281;BME280;62175;49.416;8.690;2023-04-15T00:52:41;99571.91;;;12.35;47.13
43281;BME280;62175;49.416;8.690;2023-04-15T00:55:08;99572.17;;;12.23;47.10
43281;BME280;62175;49.416;8.690;2023-04-15T00:57:37;99573.26;;;12.15;47.20
43281;BME280;62175;49.416;8.690;2023-04-15T01:00:06;99569.84;;;12.09;47.33
43281;BME280;62175;49.416;8.690;2023-04-15T01:02:34;99569.69;;;11.82;47.00
43281;BME280;62175;49.416;8.690;2023-04-15T01:05:02;99572.35;;;11.72;47.45
43281;BME280;62175;49.416;8.690;2023-04-15T01:07:46;99572.37;;;11.90;47.45
43281;BME280;62175;49.416;8.690;2023-04-15T01:10:13;99577.22;;;11.97;46.75
43281;BME280;62175;49.416;8.690;2023-04-15T01:12:40;99574.75;;;12.18;46.95
43281;BME280;62175;49.416;8.690;2023-04-15T01:15:08;99577.12;;;12.19;46.62
43281;BME280;62175;49.416;8.690;2023-04-15T01:17:36;99577.43;;;12.29;47.16
43281;BME280;62175;49.416;8.690;2023-04-15T01:20:03;99577.61;;;11.89;46.52
43281;BME280;62175;49.416;8.690;2023-04-15T01:22:32;99577.14;;;11.69;46.99
43281;BME280;62175;49.416;8.690;2023-04-15T01:25:04;99576.38;;;12.17;47.18
43281;BME280;62175;49.416;8.690;2023-04-15T01:27:33;99579.52;;;11.98;47.39
43281;BME280;62175;49.416;8.690;2023-04-15T01:30:01;99577.10;;;11.61;47.16
43281;BME280;62175;49.416;8.690;2023-04-15T01:32:28;99578.96;;;12.15;47.22
43281;BME280;62175;49.416;8.690;2023-04-15T01:34:56;99579.92;;;11.76;47.18
43281;BME280;62175;49.416;8.690;2023-04-15T01:37:23;99580.47;;;12.07;47.18
43281;BME280;62175;49.416;8.690;2023-04-15T01:39:50;99582.54;;;11.57;47.29
43281;BME280;62175;49.416;8.690;2023-04-15T01:42:17;99579.39;;;11.85;47.41
43281;BME280;62175;49.416;8.690;2023-04-15T01:44:45;99579.22;;;11.69;47.07
43281;BME280;62175;49.416;8.690;2023-04-15T01:47:12;99581.21;;;11.91;47.71
43281;BME280;62175;49.416;8.690;2023-04-15T01:49:39;99580.01;;;11.78;47.31
43281;BME280;62175;49.416;8.690;2023-04-15T01:52:06;99581.00;;;11.80;47.34
43281;BME280;62175;49.416;8.690;2023-04-15T01:54:34;99582.79;;;11.74;47.88
43281;BME280;62175;49.416;8.690;2023-04-15T01:57:01;99580.97;;;11.54;47.62
43281;BME280;62175;49.416;8.690;2023-04-15T01:59:30;99584.69;;;11.44;47.58
43281;BME280;62175;49.416;8.690;2023-04-15T02:01:57;99580.48;;;11.64;47.63
43281;BME280;62175;49.416;8.690;2023-04-15T02:04:24;99573.92;;;11.91;47.82
43281;BME280;62175;49.416;8.690;2023-04-15T02:06:51;99574.79;;;11.43;47.31
43281;BME280;62175;49.416;8.690;2023-04-15T02:09:18;99574.41;;;11.77;47.23
43281;BME280;62175;49.416;8.690;2023-04-15T02:11:46;99579.64;;;11.68;47.35
43281;BME280;62175;49.416;8.690;2023-04-15T02:14:13;99580.85;;;11.90;47.50
43281;BME280;62175;49.416;8.690;2023-04-15T02:16:40;99580.61;;;11.73;47.68
43281;BME280;62175;49.416;8.690;2023-04-15T02:19:07;99579.96;;;11.53;47.61
43281;BME280;62175;49.416;8.690;2023-04-15T02:21:34;99579.36;;;11.49;47.43
43281;BME280;62175;49.416;8.690;2023-04-15T02:24:02;99582.20;;;11.88;47.60
43281;BME280;62175;49.416;8.690;2023-04-15T02:26:29;99586.37;;;11.69;47.80
43281;BME280;62175;49.416;8.690;2023-04-15T02:28:56;99583.57;;;11.18;47.61
43281;BME280;62175;49.416;8.690;2023-04-15T02:31:24;99582.05;;;11.37;47.90
43281;BME280;62175;49.416;8.690;2023-04-15T02:33:51;99580.46;;;11.53;48.14
43281;BME280;62175;49.416;8.690;2023-04-15T02:36:18;99580.45;;;11.44;48.19
43281;BME280;62175;49.416;8.690;2023-04-15T02:38:45;99582.37;;;11.75;47.99
43281;BME280;62175;49.416;8.690;2023-04-15T02:41:12;99582.72;;;11.43;48.13
43281;BME280;62175;49.416;8.690;2023-04-15T02:43:40;99584.31;;;10.96;48.23
43281;BME280;62175;49.416;8.690;2023-04-15T02:46:07;99583.65;;;11.36;47.76
43281;BME280;62175;49.416;8.690;2023-04-15T02:48:34;99582.96;;;11.35;48.02
43281;BME280;62175;49.416;8.690;2023-04-15T02:51:19;99582.39;;;11.28;47.84
43281;BME280;62175;49.416;8.690;2023-04-15T02:53:47;99576.21;;;11.26;48.28
43281;BME280;62175;49.416;8.690;2023-04-15T02:56:15;99574.60;;;11.20;48.42
43281;BME280;62175;49.416;8.690;2023-04-15T02:58:43;99575.10;;;11.45;47.89
43281;BME280;62175;49.416;8.690;2023-04-15T03:01:11;99577.91;;;11.35;47.86
43281;BME280;62175;49.416;8.690;2023-04-15T03:03:38;99575.94;;;11.29;48.47
43281;BME280;62175;49.416;8.690;2023-04-15T03:06:05;99579.55;;;11.49;48.26
43281;BME280;62175;49.416;8.690;2023-04-15T03:08:32;99581.47;;;11.58;48.16
43281;BME280;62175;49.416;8.690;2023-04-15T03:11:00;99580.49;;;11.17;48.17
43281;BME280;62175;49.416;8.690;2023-04-15T03:13:27;99584.81;;;11.15;48.88
43281;BME280;62175;49.416;8.690;2023-04-15T03:15:54;99585.73;;;11.13;47.89
43281;BME280;62175;49.416;8.690;2023-04-15T03:18:21;99586.35;;;11.03;48.14
43281;BME280;62175;49.416;8.690;2023-04-15T03:20:49;99585.63;;;11.15;48.10
43281;BME280;62175;49.416;8.690;2023-04-15T03:23:16;99586.02;;;11.25;48.08
43281;BME280;62175;49.416;8.690;2023-04-15T03:25:44;99582.76;;;11.12;48.13
43281;BME280;62175;49.416;8.690;2023-04-15T03:28:11;99580.45;;;11.36;48.16
43281;BME280;62175;49.416;8.690;2023-04-15T03:30:39;99584.79;;;11.41;47.86
43281;BME280;62175;49.416;8.690;2023-04-15T03:33:07;99582.91;;;11.34;47.87
43281;BME280;62175;49.416;8.690;2023-04-15T03:35:34;99583.25;;;11.07;47.86
43281;BME280;62175;49.416;8.690;2023-04-15T03:38:01;99583.55;;;11.10;48.04
43281;BME280;62175;49.416;8.690;2023-04-15T03:40:28;99585.67;;;11.05;47.92
43281;BME280;62175;49.416;8.690;2023-04-15T03:42:56;99587.07;;;11.38;48.04
43281;BME280;62175;49.416;8.690;2023-04-15T03:45:23;99583.33;;;11.38;47.81
43281;BME280;62175;49.416;8.690;2023-04-15T03:47:50;99584.78;;;11.22;47.98
43281;BME280;62175;49.416;8.690;2023-04-15T03:50:17;99582.56;;;11.49;47.97
43281;BME280;62175;49.416;8.690;2023-04-15T03:52:45;99577.93;;;11.31;48.45
43281;BME280;62175;49.416;8.690;2023-04-15T03:55:12;99578.00;;;11.18;48.38
43281;BME280;62175;49.416;8.690;2023-04-15T03:57:40;99578.53;;;10.96;49.38
43281;BME280;62175;49.416;8.690;2023-04-15T04:00:08;99579.62;;;10.84;48.46
43281;BME280;62175;49.416;8.690;2023-04-15T04:02:36;99581.84;;;11.01;48.59
43281;BME280;62175;49.416;8.690;2023-04-15T04:05:03;99579.81;;;11.16;48.40
43281;BME280;62175;49.416;8.690;2023-04-15T04:07:31;99582.45;;;10.89;48.65
43281;BME280;62175;49.416;8.690;2023-04-15T04:09:59;99582.38;;;11.06;48.78
43281;BME280;62175;49.416;8.690;2023-04-15T04:12:25;99582.66;;;11.01;48.38
43281;BME280;62175;49.416;8.690;2023-04-15T04:14:56;99581.57;;;11.16;48.40
43281;BME280;62175;49.416;8.690;2023-04-15T04:17:23;99586.42;;;10.91;48.56
43281;BME280;62175;49.416;8.690;2023-04-15T04:19:50;99587.68;;;11.46;48.65
43281;BME280;62175;49.416;8.690;2023-04-15T04:22:17;99586.27;;;10.95;48.48
43281;BME280;62175;49.416;8.690;2023-04-15T04:24:48;99584.80;;;11.00;49.44
43281;BME280;62175;49.416;8.690;2023-04-15T04:27:15;99583.90;;;10.88;48.43
43281;BME280;62175;49.416;8.690;2023-04-15T04:29:42;99584.51;;;11.15;48.43
43281;BME280;62175;49.416;8.690;2023-04-15T04:32:10;99583.63;;;10.99;49.06
43281;BME280;62175;49.416;8.690;2023-04-15T04:34:37;99585.48;;;11.12;49.34
43281;BME280;62175;49.416;8.690;2023-04-15T04:37:04;99585.32;;;10.99;48.40
43281;BME280;62175;49.416;8.690;2023-04-15T04:39:33;99587.35;;;10.73;48.41
43281;BME280;62175;49.416;8.690;2023-04-15T04:42:01;99588.30;;;11.23;48.59
43281;BME280;62175;49.416;8.690;2023-04-15T04:44:28;99594.49;;;11.05;48.73
43281;BME280;62175;49.416;8.690;2023-04-15T04:46:55;99597.88;;;11.03;48.59
43281;BME280;62175;49.416;8.690;2023-04-15T04:49:23;99597.01;;;11.04;48.75
43281;BME280;62175;49.416;8.690;2023-04-15T04:51:50;99595.20;;;11.22;48.94
43281;BME280;62175;49.416;8.690;2023-04-15T04:54:18;99600.95;;;11.30;48.15
43281;BME280;62175;49.416;8.690;2023-04-15T04:56:46;99603.91;;;11.19;48.70
43281;BME280;62175;49.416;8.690;2023-04-15T04:59:13;99608.77;;;10.94;48.37
43281;BME280;62175;49.416;8.690;2023-04-15T05:01:41;99608.94;;;11.17;48.19
43281;BME280;62175;49.416;8.690;2023-04-15T05:04:09;99609.11;;;11.02;48.10
43281;BME280;62175;49.416;8.690;2023-04-15T05:06:36;99614.45;;;10.98;48.11
43281;BME280;62175;49.416;8.690;2023-04-15T05:09:03;99616.37;;;10.70;48.68
43281;BME280;62175;49.416;8.690;2023-04-15T05:11:31;99617.30;;;10.48;49.05
43281;BME280;62175;49.416;8.690;2023-04-15T05:13:59;99617.11;;;10.85;48.53
43281;BME280;62175;49.416;8.690;2023-04-15T05:16:27;99619.49;;;10.63;48.62
43281;BME280;62175;49.416;8.690;2023-04-15T05:18:55;99625.04;;;10.83;48.91
43281;BME280;62175;49.416;8.690;2023-04-15T05:21:23;99624.32;;;10.93;49.01
43281;BME280;62175;49.416;8.690;2023-04-15T05:23:52;99623.07;;;10.63;49.49
43281;BME280;62175;49.416;8.690;2023-04-15T05:26:19;99621.57;;;10.80;48.93
43281;BME280;62175;49.416;8.690;2023-04-15T05:28:47;99622.81;;;10.66;48.85
43281;BME280;62175;49.416;8.690;2023-04-15T05:31:16;99621.19;;;10.80;49.56
43281;BME280;62175;49.416;8.690;2023-04-15T05:33:43;99620.65;;;10.84;49.21
43281;BME280;62175;49.416;8.690;2023-04-15T05:36:11;99619.58;;;11.00;49.15
43281;BME280;62175;49.416;8.690;2023-04-15T05:38:38;99619.89;;;10.65;49.69
43281;BME280;62175;49.416;8.690;2023-04-15T05:41:06;99622.18;;;10.95;49.17
43281;BME280;62175;49.416;8.690;2023-04-15T05:43:33;99622.98;;;10.61;48.88
43281;BME280;62175;49.416;8.690;2023-04-15T05:46:00;99623.12;;;10.96;49.42
43281;BME280;62175;49.416;8.690;2023-04-15T05:48:28;99625.85;;;10.89;49.32
43281;BME280;62175;49.416;8.690;2023-04-15T05:50:55;99631.70;;;11.11;48.81
43281;BME280;62175;49.416;8.690;2023-04-15T05:53:24;99635.74;;;10.71;48.99
43281;BME280;62175;49.416;8.690;2023-04-15T05:55:52;99638.28;;;10.94;49.34
43281;BME280;62175;49.416;8.690;2023-04-15T05:58:19;99644.48;;;10.77;49.18
43281;BME280;62175;49.416;8.690;2023-04-15T06:00:46;99646.91;;;10.66;49.15
43281;BME280;62175;49.416;8.690;2023-04-15T06:03:13;99650.34;;;10.79;49.10
43281;BME280;62175;49.416;8.690;2023-04-15T06:05:42;99650.54;;;11.05;49.05
43281;BME280;62175;49.416;8.690;2023-04-15T06:08:09;99647.97;;;10.49;49.15
43281;BME280;62175;49.416;8.690;2023-04-15T06:10:36;99648.31;;;10.81;49.14
43281;BME280;62175;49.416;8.690;2023-04-15T06:13:04;99647.76;;;11.20;49.28
43281;BME280;62175;49.416;8.690;2023-04-15T06:15:31;99650.23;;;10.82;49.20
43281;BME280;62175;49.416;8.690;2023-04-15T06:17:58;99650.76;;;11.03;49.12
43281;BME280;62175;49.416;8.690;2023-04-15T06:20:26;99650.91;;;11.07;48.92
43281;BME280;62175;49.416;8.690;2023-04-15T06:22:53;99652.02;;;11.36;48.95
43281;BME280;62175;49.416;8.690;2023-04-15T06:25:20;99653.16;;;11.00;49.23
43281;BME280;62175;49.416;8.690;2023-04-15T06:27:47;99652.76;;;10.97;48.82
43281;BME280;62175;49.416;8.690;2023-04-15T06:30:14;99653.18;;;10.75;48.97
43281;BME280;62175;49.416;8.690;2023-04-15T06:32:41;99655.07;;;10.79;48.48
43281;BME280;62175;49.416;8.690;2023-04-15T06:35:09;99651.95;;;11.22;49.01
43281;BME280;62175;49.416;8.690;2023-04-15T06:37:37;99651.77;;;10.86;48.81
43281;BME280;62175;49.416;8.690;2023-04-15T06:40:05;99649.43;;;11.25;48.64
43281;BME280;62175;49.416;8.690;2023-04-15T06:42:32;99647.91;;;11.23;48.55
43281;BME280;62175;49.416;8.690;2023-04-15T06:45:01;99649.78;;;11.29;48.61
43281;BME280;62175;49.416;8.690;2023-04-15T06:47:30;99651.16;;;11.04;48.03
43281;BME280;62175;49.416;8.690;2023-04-15T06:49:57;99650.58;;;11.29;48.42
43281;BME280;62175;49.416;8.690;2023-04-15T06:52:25;99652.75;;;11.46;48.28
43281;BME280;62175;49.416;8.690;2023-04-15T06:54:52;99651.37;;;11.24;47.67
43281;BME280;62175;49.416;8.690;2023-04-15T06:57:19;99654.14;;;11.37;48.02
43281;BME280;62175;49.416;8.690;2023-04-15T06:59:47;99652.36;;;11.31;48.13
43281;BME280;62175;49.416;8.690;2023-04-15T07:02:16;99653.66;;;11.47;48.05
43281;BME280;62175;49.416;8.690;2023-04-15T07:04:42;99654.22;;;11.28;47.87
43281;BME280;62175;49.416;8.690;2023-04-15T07:07:11;99654.66;;;11.55;47.54
43281;BME280;62175;49.416;8.690;2023-04-15T07:09:38;99656.82;;;11.46;48.11
43281;BME280;62175;49.416;8.690;2023-04-15T07:12:05;99653.23;;;11.52;48.28
43281;BME280;62175;49.416;8.690;2023-04-15T07:14:33;99651.75;;;11.22;48.04
43281;BME280;62175;49.416;8.690;2023-04-15T07:17:01;99647.30;;;11.55;47.62
43281;BME280;62175;49.416;8.690;2023-04-15T07:19:29;99644.38;;;11.59;48.17
43281;BME280;62175;49.416;8.690;2023-04-15T07:21:57;99644.80;;;11.55;48.32
43281;BME280;62175;49.416;8.690;2023-04-15T07:24:24;99642.97;;;11.64;48.67
43281;BME280;62175;49.416;8.690;2023-04-15T07:26:52;99642.92;;;11.51;47.45
43281;BME280;62175;49.416;8.690;2023-04-15T07:29:19;99644.36;;;11.89;47.91
43281;BME280;62175;49.416;8.690;2023-04-15T07:31:47;99642.34;;;11.76;47.91
43281;BME280;62175;49.416;8.690;2023-04-15T07:34:14;99643.15;;;12.02;47.45
43281;BME280;62175;49.416;8.690;2023-04-15T07:36:41;99645.75;;;12.12;47.92
43281;BME280;62175;49.416;8.690;2023-04-15T07:39:12;99646.19;;;12.09;48.32
43281;BME280;62175;49.416;8.690;2023-04-15T07:41:39;99646.48;;;12.07;47.65
43281;BME280;62175;49.416;8.690;2023-04-15T07:44:06;99648.53;;;11.62;47.58
43281;BME280;62175;49.416;8.690;2023-04-15T07:46:35;99649.93;;;12.20;48.00
43281;BME280;62175;49.416;8.690;2023-04-15T07:49:02;99647.67;;;12.14;48.13
43281;BME280;62175;49.416;8.690;2023-04-15T07:51:29;99649.25;;;12.46;47.52
43281;BME280;62175;49.416;8.690;2023-04-15T07:53:56;99650.42;;;12.56;48.37
43281;BME280;62175;49.416;8.690;2023-04-15T07:56:23;99648.47;;;12.05;47.92
43281;BME280;62175;49.416;8.690;2023-04-15T07:58:51;99652.59;;;12.16;47.93
43281;BME280;62175;49.416;8.690;2023-04-15T08:01:18;99654.17;;;12.52;47.34
43281;BME280;62175;49.416;8.690;2023-04-15T08:03:45;99653.29;;;12.06;47.66
43281;BME280;62175;49.416;8.690;2023-04-15T08:06:12;99652.05;;;12.24;48.13
43281;BME280;62175;49.416;8.690;2023-04-15T08:08:39;99654.92;;;12.35;48.90
43281;BME280;62175;49.416;8.690;2023-04-15T08:11:06;99657.55;;;12.32;48.29
43281;BME280;62175;49.416;8.690;2023-04-15T08:13:34;99656.75;;;12.28;48.77
43281;BME280;62175;49.416;8.690;2023-04-15T08:16:19;99654.19;;;12.68;48.25
43281;BME280;62175;49.416;8.690;2023-04-15T08:18:48;99653.08;;;12.50;47.67
43281;BME280;62175;49.416;8.690;2023-04-15T08:21:16;99659.00;;;12.69;48.20
43281;BME280;62175;49.416;8.690;2023-04-15T08:23:45;99660.19;;;12.66;47.43
43281;BME280;62175;49.416;8.690;2023-04-15T08:26:12;99662.67;;;12.40;47.76
43281;BME280;62175;49.416;8.690;2023-04-15T08:28:41;99659.43;;;12.37;47.70
43281;BME280;62175;49.416;8.690;2023-04-15T08:31:09;99658.12;;;12.48;47.29
43281;BME280;62175;49.416;8.690;2023-04-15T08:33:36;99661.51;;;12.30;47.96
43281;BME280;62175;49.416;8.690;2023-04-15T08:36:03;99662.09;;;12.51;49.05
43281;BME280;62175;49.416;8.690;2023-04-15T08:38:30;99664.94;;;12.40;48.06
43281;BME280;62175;49.416;8.690;2023-04-15T08:41:02;99664.91;;;12.65;48.92
43281;BME280;62175;49.416;8.690;2023-04-15T08:43:34;99666.75;;;12.54;48.88
43281;BME280;62175;49.416;8.690;2023-04-15T08:46:03;99668.48;;;13.00;48.64
43281;BME280;62175;49.416;8.690;2023-04-15T08:48:32;99668.10;;;12.43;48.07
43281;BME280;62175;49.416;8.690;2023-04-15T08:51:00;99670.26;;;12.73;47.85
43281;BME280;62175;49.416;8.690;2023-04-15T08:53:29;99669.14;;;12.49;47.76
43281;BME280;62175;49.416;8.690;2023-04-15T08:55:57;99668.47;;;12.39;47.06
43281;BME280;62175;49.416;8.690;2023-04-15T08:58:25;99668.94;;;12.65;47.90
43281;BME280;62175;49.416;8.690;2023-04-15T09:00:55;99669.35;;;12.89;48.24
43281;BME280;62175;49.416;8.690;2023-04-15T09:03:22;99672.96;;;12.73;47.79
43281;BME280;62175;49.416;8.690;2023-04-15T09:05:50;99672.65;;;12.66;48.93
43281;BME280;62175;49.416;8.690;2023-04-15T09:08:16;99667.33;;;12.87;47.90
43281;BME280;62175;49.416;8.690;2023-04-15T09:10:44;99671.82;;;12.98;49.34
43281;BME280;62175;49.416;8.690;2023-04-15T09:13:11;99674.17;;;12.88;46.94
43281;BME280;62175;49.416;8.690;2023-04-15T09:15:39;99670.98;;;12.85;47.68
43281;BME280;62175;49.416;8.690;2023-04-15T09:18:11;99671.00;;;13.23;48.57
43281;BME280;62175;49.416;8.690;2023-04-15T09:20:47;99675.99;;;13.08;48.12
43281;BME280;62175;49.416;8.690;2023-04-15T09:23:19;99679.70;;;13.28;47.50
43281;BME280;62175;49.416;8.690;2023-04-15T09:25:47;99679.92;;;13.32;48.81
43281;BME280;62175;49.416;8.690;2023-04-15T09:28:23;99680.85;;;13.11;48.27
43281;BME280;62175;49.416;8.690;2023-04-15T09:30:54;99681.98;;;13.33;48.68
43281;BME280;62175;49.416;8.690;2023-04-15T09:33:22;99684.54;;;13.18;50.10
43281;BME280;62175;49.416;8.690;2023-04-15T09:35:57;99685.65;;;13.49;49.36
43281;BME280;62175;49.416;8.690;2023-04-15T09:38:24;99682.92;;;13.24;49.38
43281;BME280;62175;49.416;8.690;2023-04-15T09:40:52;99684.60;;;13.31;48.54
43281;BME280;62175;49.416;8.690;2023-04-15T09:43:19;99685.05;;;13.21;48.93
43281;BME280;62175;49.416;8.690;2023-04-15T09:45:48;99685.83;;;13.56;47.92
43281;BME280;62175;49.416;8.690;2023-04-15T09:48:17;99686.60;;;12.87;48.14
43281;BME280;62175;49.416;8.690;2023-04-15T09:50:46;99686.33;;;13.41;49.23
43281;BME280;62175;49.416;8.690;2023-04-15T09:53:16;99688.13;;;13.62;47.86
43281;BME280;62175;49.416;8.690;2023-04-15T09:55:45;99686.13;;;13.74;47.51
43281;BME280;62175;49.416;8.690;2023-04-15T09:58:18;99688.37;;;13.63;46.96
43281;BME280;62175;49.416;8.690;2023-04-15T10:00:47;99685.21;;;13.66;48.03
43281;BME280;62175;49.416;8.690;2023-04-15T10:03:18;99687.55;;;13.78;46.09
43281;BME280;62175;49.416;8.690;2023-04-15T10:05:48;99693.01;;;13.38;45.84
43281;BME280;62175;49.416;8.690;2023-04-15T10:08:17;99689.87;;;13.66;46.32
43281;BME280;62175;49.416;8.690;2023-04-15T10:10:46;99690.29;;;13.89;45.51
43281;BME280;62175;49.416;8.690;2023-04-15T10:13:13;99692.85;;;13.56;46.13
43281;BME280;62175;49.416;8.690;2023-04-15T10:15:44;99696.27;;;13.66;45.99
43281;BME280;62175;49.416;8.690;2023-04-15T10:18:12;99695.59;;;13.74;45.93
43281;BME280;62175;49.416;8.690;2023-04-15T10:20:41;99696.83;;;13.53;45.77
43281;BME280;62175;49.416;8.690;2023-04-15T10:23:09;99698.85;;;13.61;45.92
43281;BME280;62175;49.416;8.690;2023-04-15T10:25:38;99701.57;;;13.69;45.96
43281;BME280;62175;49.416;8.690;2023-04-15T10:28:06;99701.16;;;13.85;45.96
43281;BME280;62175;49.416;8.690;2023-04-15T10:30:34;99700.56;;;13.55;45.64
43281;BME280;62175;49.416;8.690;2023-04-15T10:33:03;99705.16;;;13.58;45.07
43281;BME280;62175;49.416;8.690;2023-04-15T10:35:32;99701.06;;;13.72;44.42
43281;BME280;62175;49.416;8.690;2023-04-15T10:37:59;99700.00;;;14.05;44.68
43281;BME280;62175;49.416;8.690;2023-04-15T10:40:28;99711.34;;;13.62;44.99
43281;BME280;62175;49.416;8.690;2023-04-15T10:42:58;99711.71;;;13.57;43.74
43281;BME280;62175;49.416;8.690;2023-04-15T10:45:30;99722.52;;;13.61;43.53
43281;BME280;62175;49.416;8.690;2023-04-15T10:48:00;99713.80;;;13.79;43.88
43281;BME280;62175;49.416;8.690;2023-04-15T10:50:29;99713.39;;;13.75;44.86
43281;BME280;62175;49.416;8.690;2023-04-15T10:52:57;99720.35;;;13.91;44.52
43281;BME280;62175;49.416;8.690;2023-04-15T10:55:26;99721.12;;;14.04;43.51
43281;BME280;62175;49.416;8.690;2023-04-15T10:58:00;99726.45;;;14.05;44.38
43281;BME280;62175;49.416;8.690;2023-04-15T11:00:29;99723.19;;;14.15;43.76
43281;BME280;62175;49.416;8.690;2023-04-15T11:02:58;99731.49;;;14.25;43.34
43281;BME280;62175;49.416;8.690;2023-04-15T11:05:49;99734.70;;;14.11;43.41
43281;BME280;62175;49.416;8.690;2023-04-15T11:08:17;99727.03;;;14.08;42.86
43281;BME280;62175;49.416;8.690;2023-04-15T11:10:53;99733.61;;;14.14;43.24
43281;BME280;62175;49.416;8.690;2023-04-15T11:13:23;99732.75;;;14.10;43.44
43281;BME280;62175;49.416;8.690;2023-04-15T11:15:56;99733.38;;;13.94;42.64
43281;BME280;62175;49.416;8.690;2023-04-15T11:18:27;99737.55;;;14.25;42.34
43281;BME280;62175;49.416;8.690;2023-04-15T11:20:56;99744.44;;;14.14;42.64
43281;BME280;62175;49.416;8.690;2023-04-15T11:23:30;99742.26;;;14.11;41.72
43281;BME280;62175;49.416;8.690;2023-04-15T11:25:59;99743.10;;;14.29;41.80
43281;BME280;62175;49.416;8.690;2023-04-15T11:28:27;99747.41;;;14.25;41.72
43281;BME280;62175;49.416;8.690;2023-04-15T11:30:55;99754.04;;;13.70;41.27
43281;BME280;62175;49.416;8.690;2023-04-15T11:33:23;99757.19;;;13.91;41.44
43281;BME280;62175;49.416;8.690;2023-04-15T11:35:52;99761.08;;;13.78;41.55
43281;BME280;62175;49.416;8.690;2023-04-15T11:38:19;99764.53;;;13.81;41.41
43281;BME280;62175;49.416;8.690;2023-04-15T11:40:47;99770.43;;;13.81;41.73
43281;BME280;62175;49.416;8.690;2023-04-15T11:43:18;99770.40;;;14.21;42.47
43281;BME280;62175;49.416;8.690;2023-04-15T11:45:50;99773.35;;;14.07;41.17
43281;BME280;62175;49.416;8.690;2023-04-15T11:48:18;99770.78;;;14.29;40.44
43281;BME280;62175;49.416;8.690;2023-04-15T11:50:52;99768.43;;;14.08;40.80
43281;BME280;62175;49.416;8.690;2023-04-15T11:53:20;99771.19;;;13.85;38.90
43281;BME280;62175;49.416;8.690;2023-04-15T11:55:50;99771.91;;;14.03;39.89
43281;BME280;62175;49.416;8.690;2023-04-15T11:58:20;99777.97;;;13.83;39.84
43281;BME280;62175;49.416;8.690;2023-04-15T12:00:49;99779.40;;;14.32;40.60
43281;BME280;62175;49.416;8.690;2023-04-15T12:03:21;99780.87;;;14.21;40.41
43281;BME280;62175;49.416;8.690;2023-04-15T12:06:05;99785.44;;;14.15;40.70
43281;BME280;62175;49.416;8.690;2023-04-15T12:09:37;99783.27;;;14.17;40.40
43281;BME280;62175;49.416;8.690;2023-04-15T12:12:04;99795.69;;;13.66;39.65
43281;BME280;62175;49.416;8.690;2023-04-15T12:14:32;99796.99;;;14.04;38.81
43281;BME280;62175;49.416;8.690;2023-04-15T12:17:00;99797.38;;;13.77;39.62
43281;BME280;62175;49.416;8.690;2023-04-15T12:19:29;99797.32;;;13.66;39.50
43281;BME280;62175;49.416;8.690;2023-04-15T12:21:58;99804.41;;;14.20;39.30
43281;BME280;62175;49.416;8.690;2023-04-15T12:24:27;99808.94;;;14.06;38.71
43281;BME280;62175;49.416;8.690;2023-04-15T12:26:56;99812.73;;;13.78;39.70
43281;BME280;62175;49.416;8.690;2023-04-15T12:29:25;99816.08;;;13.86;39.19
43281;BME280;62175;49.416;8.690;2023-04-15T12:31:55;99812.46;;;14.05;38.55
43281;BME280;62175;49.416;8.690;2023-04-15T12:34:27;99817.31;;;13.85;39.64
43281;BME280;62175;49.416;8.690;2023-04-15T12:36:55;99808.90;;;13.99;39.63
43281;BME280;62175;49.416;8.690;2023-04-15T12:39:23;99823.21;;;14.32;39.06
43281;BME280;62175;49.416;8.690;2023-04-15T12:41:51;99813.69;;;13.91;39.15
43281;BME280;62175;49.416;8.690;2023-04-15T12:44:19;99818.94;;;14.03;40.18
43281;BME280;62175;49.416;8.690;2023-04-15T12:46:46;99822.76;;;14.04;40.52
43281;BME280;62175;49.416;8.690;2023-04-15T12:49:13;99824.57;;;13.90;38.74
43281;BME280;62175;49.416;8.690;2023-04-15T12:51:41;99830.98;;;14.06;39.70
43281;BME280;62175;49.416;8.690;2023-04-15T12:54:08;99833.82;;;13.89;39.60
43281;BME280;62175;49.416;8.690;2023-04-15T12:56:35;99832.24;;;14.05;39.51
43281;BME280;62175;49.416;8.690;2023-04-15T12:59:02;99831.73;;;13.94;39.69
43281;BME280;62175;49.416;8.690;2023-04-15T13:01:29;99833.24;;;14.30;39.58
43281;BME280;62175;49.416;8.690;2023-04-15T13:03:56;99827.86;;;13.91;38.91
43281;BME280;62175;49.416;8.690;2023-04-15T13:06:24;99831.32;;;14.21;39.35